createdAt,value
2018-01-18T00:01:07.207Z,3.10
2018-01-18T00:03:34.872Z,3.00
2018-01-18T00:06:02.560Z,3.00
2018-01-18T00:08:30.392Z,3.00
2018-01-18T00:10:58.130Z,3.10
2018-01-18T00:13:27.370Z,3.10
2018-01-18T00:15:54.974Z,3.10
2018-01-18T00:18:22.542Z,3.10
2018-01-18T00:20:50.373Z,3.10
2018-01-18T00:23:18.096Z,3.20
2018-01-18T00:25:46.670Z,3.10
2018-01-18T00:28:14.406Z,3.10
2018-01-18T00:30:42.284Z,3.20
2018-01-18T00:33:09.820Z,3.30
2018-01-18T00:35:37.480Z,3.30
2018-01-18T00:38:06.115Z,3.30
2018-01-18T00:40:33.950Z,3.30
2018-01-18T00:43:02.252Z,3.30
2018-01-18T00:45:30.060Z,3.30
2018-01-18T00:47:57.781Z,3.20
2018-01-18T00:50:25.508Z,3.20
2018-01-18T00:52:53.806Z,3.20
2018-01-18T00:55:21.488Z,3.10
2018-01-18T00:57:49.162Z,3.10
2018-01-18T01:00:16.749Z,3.10
2018-01-18T01:02:44.545Z,3.10
2018-01-18T01:05:13.324Z,3.10
2018-01-18T01:07:41.101Z,3.10
2018-01-18T01:10:08.944Z,3.10
2018-01-18T01:12:38.260Z,3.10
2018-01-18T01:15:06.042Z,3.00
2018-01-18T01:17:33.787Z,3.00
2018-01-18T01:20:01.717Z,3.00
2018-01-18T01:22:29.331Z,3.00
2018-01-18T01:24:57.087Z,3.00
2018-01-18T01:27:24.869Z,2.90
2018-01-18T01:29:53.340Z,3.00
2018-01-18T01:32:21.063Z,3.00
2018-01-18T01:34:48.890Z,3.00
2018-01-18T01:37:16.673Z,3.00
2018-01-18T01:39:44.410Z,3.00
2018-01-18T01:42:12.052Z,3.00
2018-01-18T01:44:39.602Z,3.00
2018-01-18T01:47:07.420Z,2.90
2018-01-18T01:49:35.955Z,2.90
2018-01-18T01:52:03.547Z,2.80
2018-01-18T01:54:31.093Z,2.90
2018-01-18T01:56:58.712Z,2.90
2018-01-18T01:59:26.395Z,2.90
2018-01-18T02:01:54.184Z,2.90
2018-01-18T02:04:21.785Z,2.90
2018-01-18T02:06:49.479Z,2.80
2018-01-18T02:09:17.726Z,2.90
2018-01-18T02:11:45.356Z,2.90
2018-01-18T02:14:12.972Z,2.90
2018-01-18T02:16:40.592Z,3.00
2018-01-18T02:19:09.010Z,3.00
2018-01-18T02:21:36.587Z,2.90
2018-01-18T02:24:04.194Z,3.00
2018-01-18T02:26:32.603Z,2.90
2018-01-18T02:29:00.388Z,2.80
2018-01-18T02:31:28.150Z,2.80
2018-01-18T02:33:55.970Z,2.80
2018-01-18T02:36:23.816Z,2.80
2018-01-18T02:38:51.566Z,2.80
2018-01-18T02:41:19.359Z,2.80
2018-01-18T02:43:47.968Z,2.80
2018-01-18T02:46:15.792Z,2.70
2018-01-18T02:48:43.576Z,2.80
2018-01-18T02:51:11.443Z,2.70
2018-01-18T02:53:39.338Z,2.70
2018-01-18T02:56:07.037Z,2.70
2018-01-18T02:58:34.648Z,2.80
2018-01-18T03:01:02.230Z,2.80
2018-01-18T03:03:29.950Z,2.90
2018-01-18T03:05:58.373Z,2.80
2018-01-18T03:08:25.998Z,2.80
2018-01-18T03:10:53.680Z,2.80
2018-01-18T03:13:21.483Z,2.80
2018-01-18T03:15:50.136Z,2.80
2018-01-18T03:18:19.460Z,2.80
2018-01-18T03:20:47.181Z,2.70
2018-01-18T03:23:15.656Z,2.70
2018-01-18T03:25:44.177Z,2.80
2018-01-18T03:28:11.744Z,2.70
2018-01-18T03:30:39.388Z,2.80
2018-01-18T03:33:07.031Z,2.80
2018-01-18T03:35:34.648Z,2.80
2018-01-18T03:38:02.280Z,2.70
2018-01-18T03:40:30.011Z,2.80
2018-01-18T03:42:57.562Z,2.80
2018-01-18T03:45:25.877Z,2.80
2018-01-18T03:47:53.443Z,2.70
2018-01-18T03:50:21.848Z,2.80
2018-01-18T03:52:49.430Z,2.80
2018-01-18T03:55:17.137Z,2.80
2018-01-18T03:57:44.883Z,2.90
2018-01-18T04:00:12.701Z,2.90
2018-01-18T04:02:40.544Z,2.90
2018-01-18T04:05:09.090Z,2.90
2018-01-18T04:07:37.555Z,2.90
2018-01-18T04:10:06.170Z,3.00
2018-01-18T04:12:33.794Z,2.90
2018-01-18T04:15:01.726Z,2.90
2018-01-18T04:17:29.571Z,2.90
2018-01-18T04:19:57.377Z,2.90
2018-01-18T04:22:25.164Z,2.90
2018-01-18T04:24:52.939Z,2.80
2018-01-18T04:27:20.602Z,2.80
2018-01-18T04:29:49.081Z,2.80
2018-01-18T04:32:17.560Z,2.70
2018-01-18T04:34:45.340Z,2.80
2018-01-18T04:37:13.135Z,2.80
2018-01-18T04:39:40.910Z,2.90
2018-01-18T04:42:08.734Z,2.80
2018-01-18T04:44:36.914Z,2.90
2018-01-18T04:47:05.188Z,2.80
2018-01-18T04:49:32.995Z,2.90
2018-01-18T04:52:00.711Z,2.90
2018-01-18T04:54:28.537Z,2.90
2018-01-18T04:56:56.395Z,2.90
2018-01-18T04:59:24.189Z,2.80
2018-01-18T05:01:52.000Z,2.80
2018-01-18T05:04:19.837Z,2.80
2018-01-18T05:06:47.621Z,2.70
2018-01-18T05:09:16.619Z,2.80
2018-01-18T05:11:44.393Z,2.70
2018-01-18T05:14:12.209Z,2.80
2018-01-18T05:16:40.829Z,2.70
2018-01-18T05:19:09.749Z,2.70
2018-01-18T05:21:37.493Z,2.60
2018-01-18T05:24:05.098Z,2.60
2018-01-18T05:26:32.917Z,2.60
2018-01-18T05:29:00.665Z,2.60
2018-01-18T05:31:28.581Z,2.50
2018-01-18T05:33:56.375Z,2.50
2018-01-18T05:36:25.001Z,2.50
2018-01-18T05:38:52.745Z,2.50
2018-01-18T05:41:20.587Z,2.50
2018-01-18T05:43:48.983Z,2.40
2018-01-18T05:46:16.752Z,2.40
2018-01-18T05:48:45.276Z,2.40
2018-01-18T05:51:12.972Z,2.30
2018-01-18T05:53:40.617Z,2.40
2018-01-18T05:56:08.286Z,2.40
2018-01-18T05:58:35.943Z,2.30
2018-01-18T06:01:03.716Z,2.30
2018-01-18T06:03:31.307Z,2.30
2018-01-18T06:06:00.425Z,2.20
2018-01-18T06:08:28.075Z,2.10
2018-01-18T06:10:55.850Z,2.10
2018-01-18T06:13:23.649Z,2.10
2018-01-18T06:15:51.470Z,2.00
2018-01-18T06:18:19.234Z,2.00
2018-01-18T06:20:47.033Z,2.00
2018-01-18T06:23:15.462Z,1.90
2018-01-18T06:25:43.230Z,1.90
2018-01-18T06:28:11.021Z,1.80
2018-01-18T06:30:38.825Z,1.80
2018-01-18T06:33:06.489Z,1.70
2018-01-18T06:35:34.189Z,1.70
2018-01-18T06:38:01.931Z,1.70
2018-01-18T06:40:29.728Z,1.70
2018-01-18T06:42:57.434Z,1.70
2018-01-18T06:45:25.240Z,1.60
2018-01-18T06:47:52.965Z,1.60
2018-01-18T06:50:20.740Z,1.60
2018-01-18T06:52:48.464Z,1.60
2018-01-18T06:55:16.209Z,1.60
2018-01-18T06:57:44.001Z,1.60
2018-01-18T07:00:11.758Z,1.60
2018-01-18T07:02:40.303Z,1.60
2018-01-18T07:05:08.079Z,1.60
2018-01-18T07:07:35.837Z,1.70
2018-01-18T07:10:03.555Z,1.70
2018-01-18T07:12:31.111Z,1.70
2018-01-18T07:14:58.747Z,1.80
2018-01-18T07:17:26.401Z,1.90
2018-01-18T07:19:53.960Z,2.00
2018-01-18T07:22:21.531Z,2.10
2018-01-18T07:24:49.096Z,2.30
2018-01-18T07:27:16.809Z,2.40
2018-01-18T07:29:44.402Z,2.40
2018-01-18T07:32:12.087Z,2.50
2018-01-18T07:34:39.896Z,2.50
2018-01-18T07:37:07.735Z,2.60
2018-01-18T07:39:35.637Z,2.70
2018-01-18T07:42:03.444Z,2.70
2018-01-18T07:44:31.180Z,2.80
2018-01-18T07:46:58.952Z,2.90
2018-01-18T07:49:27.523Z,3.00
2018-01-18T07:51:55.177Z,3.10
2018-01-18T07:54:23.675Z,3.20
2018-01-18T07:56:57.979Z,3.20
2018-01-18T07:59:26.349Z,3.30
2018-01-18T08:01:54.023Z,3.20
2018-01-18T08:04:26.593Z,3.30
2018-01-18T08:06:54.170Z,3.40
2018-01-18T08:09:22.505Z,3.40
2018-01-18T08:11:50.085Z,3.40
2018-01-18T08:14:17.659Z,3.50
2018-01-18T08:16:45.382Z,3.60
2018-01-18T08:19:12.977Z,3.60
2018-01-18T08:21:40.550Z,3.80
2018-01-18T08:24:08.878Z,3.90
2018-01-18T08:26:36.453Z,3.90
2018-01-18T08:29:04.009Z,4.10
2018-01-18T08:31:31.553Z,4.20
2018-01-18T08:33:59.849Z,4.30
2018-01-18T08:36:28.157Z,4.40
2018-01-18T08:38:56.481Z,4.40
2018-01-18T08:41:24.080Z,4.40
2018-01-18T08:43:51.687Z,4.50
2018-01-18T08:46:19.365Z,4.50
2018-01-18T08:48:47.058Z,4.60
2018-01-18T08:51:14.780Z,4.60
2018-01-18T08:53:42.310Z,4.60
2018-01-18T08:56:09.909Z,4.60
2018-01-18T08:58:37.465Z,4.60
2018-01-18T09:01:05.137Z,4.70
2018-01-18T09:03:32.704Z,4.70
2018-01-18T09:06:00.294Z,4.70
2018-01-18T09:08:27.862Z,4.80
2018-01-18T09:10:55.437Z,4.90
2018-01-18T09:13:23.022Z,5.00
2018-01-18T09:15:50.624Z,5.10
2018-01-18T09:18:19.033Z,5.20
2018-01-18T09:20:47.406Z,5.40
2018-01-18T09:23:15.127Z,5.30
2018-01-18T09:25:42.757Z,5.40
2018-01-18T09:28:10.349Z,5.50
2018-01-18T09:30:37.933Z,5.50
2018-01-18T09:33:05.557Z,5.50
2018-01-18T09:35:33.346Z,5.60
2018-01-18T09:38:01.239Z,5.60
2018-01-18T09:40:28.843Z,5.70
2018-01-18T09:42:56.433Z,5.80
2018-01-18T09:45:23.998Z,5.90
2018-01-18T09:47:52.040Z,6.00
2018-01-18T09:50:19.746Z,6.00
2018-01-18T09:52:48.571Z,6.00
2018-01-18T09:55:16.314Z,6.00
2018-01-18T09:57:43.953Z,6.10
2018-01-18T10:00:12.485Z,6.10
2018-01-18T10:02:40.363Z,6.10
2018-01-18T10:05:08.003Z,6.10
2018-01-18T10:07:35.756Z,6.10
2018-01-18T10:10:03.326Z,6.00
2018-01-18T10:12:30.952Z,6.10
2018-01-18T10:14:58.515Z,6.10
2018-01-18T10:17:26.979Z,6.00
2018-01-18T10:19:55.430Z,6.00
2018-01-18T10:22:22.975Z,6.10
2018-01-18T10:24:50.553Z,6.10
2018-01-18T10:27:18.199Z,6.10
2018-01-18T10:29:46.030Z,6.10
2018-01-18T10:32:14.721Z,6.10
2018-01-18T10:34:43.291Z,6.10
2018-01-18T10:37:11.969Z,6.00
2018-01-18T10:39:40.583Z,6.00
2018-01-18T10:42:08.347Z,6.00
2018-01-18T10:44:36.191Z,6.00
2018-01-18T10:47:03.939Z,6.00
2018-01-18T10:49:31.689Z,6.00
2018-01-18T10:51:59.491Z,5.90
2018-01-18T10:54:27.661Z,5.90
2018-01-18T10:56:55.497Z,5.80
2018-01-18T10:59:23.226Z,5.80
2018-01-18T11:01:50.999Z,5.80
2018-01-18T11:04:18.741Z,5.90
2018-01-18T11:06:47.101Z,5.80
2018-01-18T11:09:14.837Z,5.80
2018-01-18T11:11:42.517Z,5.80
2018-01-18T11:14:10.119Z,5.80
2018-01-18T11:16:37.756Z,5.80
2018-01-18T11:19:05.447Z,5.80
2018-01-18T11:21:33.215Z,5.80
2018-01-18T11:24:00.941Z,5.80
2018-01-18T11:26:29.574Z,5.80
2018-01-18T11:28:58.110Z,5.80
2018-01-18T11:31:25.778Z,5.80
2018-01-18T11:33:53.328Z,5.80
2018-01-18T11:36:21.682Z,5.70
2018-01-18T11:38:49.282Z,5.70
2018-01-18T11:41:17.781Z,5.60
2018-01-18T11:43:45.491Z,5.60
2018-01-18T11:46:13.859Z,5.60
2018-01-18T11:48:41.645Z,5.50
2018-01-18T11:51:09.469Z,5.50
2018-01-18T11:53:37.223Z,5.40
2018-01-18T11:56:04.986Z,5.40
2018-01-18T11:58:33.522Z,5.30
2018-01-18T12:01:01.297Z,5.40
2018-01-18T12:03:29.677Z,5.30
2018-01-18T12:05:57.194Z,5.30
2018-01-18T12:08:24.737Z,5.30
2018-01-18T12:10:52.418Z,5.30
2018-01-18T12:13:20.118Z,5.30
2018-01-18T12:15:47.818Z,5.40
2018-01-18T12:18:15.550Z,5.30
2018-01-18T12:20:43.313Z,5.40
2018-01-18T12:23:12.189Z,5.40
2018-01-18T12:25:39.924Z,5.40
2018-01-18T12:28:07.723Z,5.50
2018-01-18T12:30:35.410Z,5.50
2018-01-18T12:33:03.099Z,5.50
2018-01-18T12:35:30.878Z,5.50
2018-01-18T12:37:58.655Z,5.50
2018-01-18T12:40:26.391Z,5.50
2018-01-18T12:42:55.059Z,5.50
2018-01-18T12:45:22.825Z,5.50
2018-01-18T12:47:50.373Z,5.50
2018-01-18T12:50:18.120Z,5.40
2018-01-18T12:52:45.840Z,5.40
2018-01-18T12:55:13.594Z,5.30
2018-01-18T12:57:41.246Z,5.30
2018-01-18T13:00:09.043Z,5.30
2018-01-18T13:02:36.809Z,5.40
2018-01-18T13:05:04.580Z,5.30
2018-01-18T13:07:32.311Z,5.30
2018-01-18T13:09:59.875Z,5.30
2018-01-18T13:12:27.474Z,5.30
2018-01-18T13:14:55.058Z,5.30
2018-01-18T13:17:24.606Z,5.30
2018-01-18T13:19:52.287Z,5.30
2018-01-18T13:22:20.055Z,5.30
2018-01-18T13:24:47.782Z,5.30
2018-01-18T13:27:15.523Z,5.40
2018-01-18T13:29:43.264Z,5.30
2018-01-18T13:32:10.843Z,5.40
2018-01-18T13:34:38.407Z,5.30
2018-01-18T13:37:07.257Z,5.30
2018-01-18T13:39:35.732Z,5.30
2018-01-18T13:42:03.559Z,5.30
2018-01-18T13:44:31.291Z,5.40
2018-01-18T13:46:59.044Z,5.40
2018-01-18T13:49:26.818Z,5.30
2018-01-18T13:51:54.569Z,5.30
2018-01-18T13:54:22.372Z,5.30
2018-01-18T13:56:50.188Z,5.20
2018-01-18T13:59:18.003Z,5.20
2018-01-18T14:01:45.569Z,5.20
2018-01-18T14:04:13.163Z,5.20
2018-01-18T14:06:41.797Z,5.20
2018-01-18T14:09:09.572Z,5.20
2018-01-18T14:11:37.351Z,5.20
2018-01-18T14:14:05.149Z,5.20
2018-01-18T14:16:32.714Z,5.20
2018-01-18T14:19:00.270Z,5.10
2018-01-18T14:21:27.851Z,5.10
2018-01-18T14:23:56.318Z,5.10
2018-01-18T14:26:24.818Z,5.10
2018-01-18T14:28:52.465Z,5.10
2018-01-18T14:31:20.089Z,5.10
2018-01-18T14:33:47.691Z,5.10
2018-01-18T14:36:15.263Z,5.10
2018-01-18T14:38:43.666Z,5.10
2018-01-18T14:41:12.002Z,5.20
2018-01-18T14:43:39.574Z,5.10
2018-01-18T14:46:07.150Z,5.20
2018-01-18T14:48:34.719Z,5.30
2018-01-18T14:51:02.409Z,5.30
2018-01-18T14:53:29.966Z,5.40
2018-01-18T14:55:57.562Z,5.40
2018-01-18T14:58:25.316Z,5.40
2018-01-18T15:00:53.070Z,5.50
2018-01-18T15:03:20.836Z,5.70
2018-01-18T15:05:48.652Z,5.70
2018-01-18T15:08:16.420Z,5.80
2018-01-18T15:10:44.959Z,5.90
2018-01-18T15:13:12.720Z,5.90
2018-01-18T15:15:40.387Z,6.00
2018-01-18T15:18:07.950Z,5.90
2018-01-18T15:20:35.625Z,6.00
2018-01-18T15:23:03.378Z,6.00
2018-01-18T15:25:31.172Z,6.10
2018-01-18T15:27:59.006Z,6.10
2018-01-18T15:30:27.567Z,6.10
2018-01-18T15:32:55.419Z,6.10
2018-01-18T15:35:23.228Z,6.20
2018-01-18T15:37:50.976Z,6.20
2018-01-18T15:40:18.718Z,6.10
2018-01-18T15:42:46.478Z,6.10
2018-01-18T15:45:14.164Z,6.10
2018-01-18T15:47:41.920Z,6.00
2018-01-18T15:50:09.690Z,6.00
2018-01-18T15:52:37.388Z,6.00
2018-01-18T15:55:05.141Z,5.90
2018-01-18T15:57:32.788Z,5.80
2018-01-18T16:00:00.366Z,5.80
2018-01-18T16:02:28.782Z,5.70
2018-01-18T16:04:56.526Z,5.70
2018-01-18T16:07:24.113Z,5.70
2018-01-18T16:09:51.686Z,5.50
2018-01-18T16:12:19.278Z,5.40
2018-01-18T16:14:46.794Z,5.40
2018-01-18T16:17:14.338Z,5.30
2018-01-18T16:19:42.753Z,5.20
2018-01-18T16:22:10.302Z,5.10
2018-01-18T16:24:39.102Z,5.20
2018-01-18T16:27:06.684Z,5.20
2018-01-18T16:29:34.254Z,5.20
2018-01-18T16:32:01.891Z,5.10
2018-01-18T16:34:29.636Z,5.10
2018-01-18T16:36:57.160Z,5.10
2018-01-18T16:39:24.861Z,5.10
2018-01-18T16:41:52.500Z,5.10
2018-01-18T16:44:20.053Z,5.00
2018-01-18T16:46:48.579Z,4.90
2018-01-18T16:49:16.482Z,4.90
2018-01-18T16:51:44.816Z,4.90
2018-01-18T16:54:12.420Z,4.80
2018-01-18T16:56:39.986Z,4.90
2018-01-18T16:59:07.589Z,4.90
2018-01-18T17:01:35.169Z,4.80
2018-01-18T17:04:02.805Z,4.90
2018-01-18T17:06:30.491Z,4.90
2018-01-18T17:08:58.279Z,4.80
2018-01-18T17:11:26.063Z,4.80
2018-01-18T17:13:53.784Z,4.80
2018-01-18T17:16:21.419Z,4.90
2018-01-18T17:18:49.151Z,5.00
2018-01-18T17:21:17.644Z,5.10
2018-01-18T17:23:45.233Z,5.00
2018-01-18T17:26:12.980Z,5.10
2018-01-18T17:28:40.557Z,5.20
2018-01-18T17:31:08.270Z,5.20
2018-01-18T17:33:36.082Z,5.20
2018-01-18T17:36:03.626Z,5.20
2018-01-18T17:38:31.496Z,5.30
2018-01-18T17:40:59.229Z,5.30
2018-01-18T17:43:26.951Z,5.30
2018-01-18T17:45:54.739Z,5.40
2018-01-18T17:48:23.240Z,5.40
2018-01-18T17:50:50.995Z,5.40
2018-01-18T17:53:18.753Z,5.40
2018-01-18T17:55:46.612Z,5.40
2018-01-18T17:58:14.357Z,5.40
2018-01-18T18:00:42.199Z,5.50
2018-01-18T18:03:09.978Z,5.50
2018-01-18T18:05:37.671Z,5.50
2018-01-18T18:08:05.417Z,5.40
2018-01-18T18:10:33.214Z,5.40
2018-01-18T18:13:00.989Z,5.30
2018-01-18T18:15:29.429Z,5.40
2018-01-18T18:17:57.027Z,5.40
2018-01-18T18:20:24.631Z,5.60
2018-01-18T18:22:52.363Z,5.70
2018-01-18T18:25:20.543Z,5.70
2018-01-18T18:27:48.329Z,5.70
2018-01-18T18:30:16.079Z,5.80
2018-01-18T18:32:44.465Z,5.80
2018-01-18T18:35:12.281Z,5.80
2018-01-18T18:37:40.638Z,5.90
2018-01-18T18:40:08.353Z,5.80
2018-01-18T18:42:36.832Z,5.90
2018-01-18T18:45:05.320Z,5.90
2018-01-18T18:47:33.713Z,5.90
2018-01-18T18:50:01.443Z,5.90
2018-01-18T18:52:29.905Z,6.00
2018-01-18T18:54:59.127Z,6.00
2018-01-18T18:57:27.533Z,6.00
2018-01-18T18:59:55.887Z,6.00
2018-01-18T19:02:23.437Z,6.00
2018-01-18T19:04:51.119Z,6.10
2018-01-18T19:07:19.628Z,6.20
2018-01-18T19:09:47.362Z,6.20
2018-01-18T19:12:15.105Z,6.20
2018-01-18T19:14:42.882Z,6.30
2018-01-18T19:17:10.594Z,6.30
2018-01-18T19:19:38.350Z,6.40
2018-01-18T19:22:06.172Z,6.40
2018-01-18T19:24:33.977Z,6.50
2018-01-18T19:27:01.740Z,6.50
2018-01-18T19:29:29.574Z,6.60
2018-01-18T19:31:57.375Z,6.50
2018-01-18T19:34:25.111Z,6.70
2018-01-18T19:36:53.698Z,6.70
2018-01-18T19:39:21.515Z,6.70
2018-01-18T19:41:50.009Z,6.70
2018-01-18T19:44:17.765Z,6.70
2018-01-18T19:46:45.561Z,6.80
2018-01-18T19:49:13.308Z,6.80
2018-01-18T19:51:41.071Z,6.70
2018-01-18T19:54:08.753Z,6.70
2018-01-18T19:56:37.321Z,6.70
2018-01-18T19:59:05.100Z,6.60
2018-01-18T20:01:32.830Z,6.60
2018-01-18T20:04:00.628Z,6.60
2018-01-18T20:06:28.447Z,6.50
2018-01-18T20:08:56.255Z,6.50
2018-01-18T20:11:24.008Z,6.50
2018-01-18T20:13:52.575Z,6.40
2018-01-18T20:16:20.339Z,6.40
2018-01-18T20:18:48.111Z,6.30
2018-01-18T20:21:15.893Z,6.30
2018-01-18T20:23:43.600Z,6.30
2018-01-18T20:26:11.415Z,6.20
2018-01-18T20:28:39.267Z,6.10
2018-01-18T20:31:07.076Z,6.10
2018-01-18T20:33:35.589Z,6.10
2018-01-18T20:36:03.314Z,6.10
2018-01-18T20:38:31.772Z,6.00
2018-01-18T20:40:59.554Z,6.00
2018-01-18T20:43:27.306Z,6.00
2018-01-18T20:45:54.956Z,5.90
2018-01-18T20:48:22.696Z,5.80
2018-01-18T20:50:50.550Z,5.90
2018-01-18T20:53:18.317Z,5.80
2018-01-18T20:55:46.086Z,5.90
2018-01-18T20:58:13.828Z,5.80
2018-01-18T21:00:41.648Z,5.80
2018-01-18T21:03:09.408Z,5.80
2018-01-18T21:05:37.016Z,5.80
2018-01-18T21:08:04.656Z,5.90
2018-01-18T21:10:32.220Z,5.80
2018-01-18T21:12:59.888Z,5.80
2018-01-18T21:15:27.633Z,5.70
2018-01-18T21:17:55.329Z,5.80
2018-01-18T21:20:23.104Z,5.80
2018-01-18T21:22:51.674Z,5.60
2018-01-18T21:25:19.488Z,5.60
2018-01-18T21:27:47.182Z,5.50
2018-01-18T21:30:14.966Z,5.50
2018-01-18T21:32:42.738Z,5.50
2018-01-18T21:35:10.565Z,5.50
2018-01-18T21:37:39.146Z,5.60
2018-01-18T21:40:06.879Z,5.60
2018-01-18T21:42:35.449Z,5.60
2018-01-18T21:45:03.725Z,5.70
2018-01-18T21:47:31.317Z,5.80
2018-01-18T21:49:59.631Z,5.90
2018-01-18T21:52:27.380Z,5.80
2018-01-18T21:54:55.080Z,6.00
2018-01-18T21:57:22.654Z,6.00
2018-01-18T21:59:50.320Z,6.10
2018-01-18T22:02:18.125Z,6.10
2018-01-18T22:04:45.874Z,6.10
2018-01-18T22:07:13.661Z,6.10
2018-01-18T22:09:42.242Z,6.20
2018-01-18T22:12:09.997Z,6.10
2018-01-18T22:14:37.844Z,6.20
2018-01-18T22:17:05.617Z,6.20
2018-01-18T22:19:33.432Z,6.30
2018-01-18T22:22:01.944Z,6.30
2018-01-18T22:24:29.709Z,6.30
2018-01-18T22:26:57.488Z,6.40
2018-01-18T22:29:25.177Z,6.40
2018-01-18T22:31:53.659Z,6.50
2018-01-18T22:34:22.194Z,6.50
2018-01-18T22:36:49.778Z,6.40
2018-01-18T22:39:17.584Z,6.50
2018-01-18T22:41:45.324Z,6.40
2018-01-18T22:44:13.125Z,6.40
2018-01-18T22:46:40.842Z,6.30
2018-01-18T22:49:09.407Z,6.30
2018-01-18T22:51:37.120Z,6.20
2018-01-18T22:54:04.890Z,6.20
2018-01-18T22:56:32.690Z,6.20
2018-01-18T22:59:01.372Z,6.10
2018-01-18T23:01:29.153Z,6.10
2018-01-18T23:03:56.929Z,6.10
2018-01-18T23:06:24.686Z,6.00
2018-01-18T23:08:52.474Z,6.00
2018-01-18T23:11:20.301Z,5.90
2018-01-18T23:13:48.893Z,5.90
2018-01-18T23:16:16.686Z,5.80
2018-01-18T23:18:45.182Z,5.70
2018-01-18T23:21:14.142Z,5.70
2018-01-18T23:23:41.921Z,5.70
2018-01-18T23:26:09.686Z,5.70
2018-01-18T23:28:37.455Z,5.60
2018-01-18T23:31:05.187Z,5.50
2018-01-18T23:33:32.946Z,5.50
2018-01-18T23:36:00.754Z,5.50
2018-01-18T23:38:28.422Z,5.50
2018-01-18T23:40:56.066Z,5.50
2018-01-18T23:43:23.745Z,5.50
2018-01-18T23:45:51.326Z,5.40
2018-01-18T23:48:19.820Z,5.40
2018-01-18T23:50:47.475Z,5.30
2018-01-18T23:53:15.126Z,5.40
2018-01-18T23:55:43.635Z,5.30
2018-01-18T23:58:11.409Z,5.30
